sensor_id;sensor_type;location;lat;lon;timestamp;temperature;humidity
3023;DHT22;1521;53.584;9.938;2022-12-18T00:01:47;-4.50;52.90
3023;DHT22;1521;53.584;9.938;2022-12-18T00:04:25;-4.50;99.30
3023;DHT22;1521;53.584;9.938;2022-12-18T00:06:51;-4.60;99.90
3023;DHT22;1521;53.584;9.938;2022-12-18T00:09:17;-4.60;99.90
3023;DHT22;1521;53.584;9.938;2022-12-18T00:11:42;-4.60;99.90
3023;DHT22;1521;53.584;9.938;2022-12-18T00:14:10;-4.50;99.90
3023;DHT22;1521;53.584;9.938;2022-12-18T00:16:36;-4.50;99.90
3023;DHT22;1521;53.584;9.938;2022-12-18T00:19:03;-4.50;99.90
3023;DHT22;1521;53.584;9.938;2022-12-18T00:21:29;-4.60;99.90
3023;DHT22;1521;53.584;9.938;2022-12-18T00:23:56;-4.50;99.90
3023;DHT22;1521;53.584;9.938;2022-12-18T00:26:30;-4.50;99.90
3023;DHT22;1521;53.584;9.938;2022-12-18T00:29:00;-4.40;99.90
3023;DHT22;1521;53.584;9.938;2022-12-18T00:31:26;-4.30;99.90
3023;DHT22;1521;53.584;9.938;2022-12-18T00:33:54;-4.30;99.90
3023;DHT22;1521;53.584;9.938;2022-12-18T00:36:23;-4.40;99.90
3023;DHT22;1521;53.584;9.938;2022-12-18T00:38:50;-4.40;99.90
3023;DHT22;1521;53.584;9.938;2022-12-18T00:41:17;-4.50;99.90
3023;DHT22;1521;53.584;9.938;2022-12-18T00:44:03;-4.60;99.90
3023;DHT22;1521;53.584;9.938;2022-12-18T00:46:29;-4.50;99.90
3023;DHT22;1521;53.584;9.938;2022-12-18T00:48:55;-4.50;99.90
3023;DHT22;1521;53.584;9.938;2022-12-18T00:51:20;-4.50;99.90
3023;DHT22;1521;53.584;9.938;2022-12-18T00:53:46;-4.50;99.90
3023;DHT22;1521;53.584;9.938;2022-12-18T00:56:11;-4.60;99.90
3023;DHT22;1521;53.584;9.938;2022-12-18T00:58:37;-4.60;99.90
3023;DHT22;1521;53.584;9.938;2022-12-18T01:01:06;-4.60;99.90
3023;DHT22;1521;53.584;9.938;2022-12-18T01:03:32;-4.60;99.90
3023;DHT22;1521;53.584;9.938;2022-12-18T01:05:58;-4.60;99.90
3023;DHT22;1521;53.584;9.938;2022-12-18T01:08:23;-4.60;99.90
3023;DHT22;1521;53.584;9.938;2022-12-18T01:10:49;-4.60;99.90
3023;DHT22;1521;53.584;9.938;2022-12-18T01:13:14;-4.70;99.90
3023;DHT22;1521;53.584;9.938;2022-12-18T01:15:40;-4.60;1.00
3023;DHT22;1521;53.584;9.938;2022-12-18T01:18:06;-4.60;1.00
3023;DHT22;1521;53.584;9.938;2022-12-18T01:20:32;-4.60;99.90
3023;DHT22;1521;53.584;9.938;2022-12-18T01:22:58;-4.50;99.90
3023;DHT22;1521;53.584;9.938;2022-12-18T01:25:24;-4.40;99.90
3023;DHT22;1521;53.584;9.938;2022-12-18T01:27:49;-4.50;99.90
3023;DHT22;1521;53.584;9.938;2022-12-18T01:30:15;-4.60;99.90
3023;DHT22;1521;53.584;9.938;2022-12-18T01:32:40;-4.50;99.90
3023;DHT22;1521;53.584;9.938;2022-12-18T01:35:06;-4.50;99.90
3023;DHT22;1521;53.584;9.938;2022-12-18T01:37:32;-4.50;99.90
3023;DHT22;1521;53.584;9.938;2022-12-18T01:39:58;-4.40;95.50
3023;DHT22;1521;53.584;9.938;2022-12-18T01:42:23;-4.40;10.00
3023;DHT22;1521;53.584;9.938;2022-12-18T01:47:45;-4.40;1.00
3023;DHT22;1521;53.584;9.938;2022-12-18T01:53:10;-4.60;1.00
3023;DHT22;1521;53.584;9.938;2022-12-18T01:55:48;-4.60;1.00
3023;DHT22;1521;53.584;9.938;2022-12-18T01:58:14;-4.60;1.00
3023;DHT22;1521;53.584;9.938;2022-12-18T02:00:41;-4.60;1.00
3023;DHT22;1521;53.584;9.938;2022-12-18T02:03:07;-4.60;1.00
3023;DHT22;1521;53.584;9.938;2022-12-18T02:05:47;-4.70;1.00
3023;DHT22;1521;53.584;9.938;2022-12-18T02:13:23;-4.70;1.00
3023;DHT22;1521;53.584;9.938;2022-12-18T02:18:35;-4.70;1.00
3023;DHT22;1521;53.584;9.938;2022-12-18T02:21:40;-4.70;1.00
3023;DHT22;1521;53.584;9.938;2022-12-18T02:24:36;-4.70;1.00
3023;DHT22;1521;53.584;9.938;2022-12-18T02:27:09;-4.80;1.00
3023;DHT22;1521;53.584;9.938;2022-12-18T02:29:43;-4.90;1.00
3023;DHT22;1521;53.584;9.938;2022-12-18T02:32:14;-4.90;1.00
3023;DHT22;1521;53.584;9.938;2022-12-18T02:34:41;-4.90;1.00
3023;DHT22;1521;53.584;9.938;2022-12-18T02:37:12;-4.90;1.00
3023;DHT22;1521;53.584;9.938;2022-12-18T02:39:41;-5.00;1.00
3023;DHT22;1521;53.584;9.938;2022-12-18T02:42:07;-5.10;1.00
3023;DHT22;1521;53.584;9.938;2022-12-18T02:44:35;-5.10;1.00
3023;DHT22;1521;53.584;9.938;2022-12-18T02:47:10;-5.20;1.00
3023;DHT22;1521;53.584;9.938;2022-12-18T02:49:53;-5.20;1.00
3023;DHT22;1521;53.584;9.938;2022-12-18T02:57:36;-5.30;99.90
3023;DHT22;1521;53.584;9.938;2022-12-18T03:00:12;-5.30;99.90
3023;DHT22;1521;53.584;9.938;2022-12-18T03:02:57;-5.40;99.90
3023;DHT22;1521;53.584;9.938;2022-12-18T03:08:15;-5.50;99.90
3023;DHT22;1521;53.584;9.938;2022-12-18T03:10:52;-5.50;99.90
3023;DHT22;1521;53.584;9.938;2022-12-18T03:13:26;-5.60;99.90
3023;DHT22;1521;53.584;9.938;2022-12-18T03:15:55;-5.60;99.90
3023;DHT22;1521;53.584;9.938;2022-12-18T03:18:49;-5.70;99.90
3023;DHT22;1521;53.584;9.938;2022-12-18T03:21:19;-5.70;99.90
3023;DHT22;1521;53.584;9.938;2022-12-18T03:23:49;-5.70;99.90
3023;DHT22;1521;53.584;9.938;2022-12-18T03:26:18;-5.80;99.90
3023;DHT22;1521;53.584;9.938;2022-12-18T03:28:59;-5.70;1.00
3023;DHT22;1521;53.584;9.938;2022-12-18T03:31:28;-5.70;1.00
3023;DHT22;1521;53.584;9.938;2022-12-18T03:34:01;-5.70;1.00
3023;DHT22;1521;53.584;9.938;2022-12-18T03:36:28;-5.70;1.00
3023;DHT22;1521;53.584;9.938;2022-12-18T03:38:57;-5.70;1.00
3023;DHT22;1521;53.584;9.938;2022-12-18T03:41:43;-5.70;1.00
3023;DHT22;1521;53.584;9.938;2022-12-18T03:52:22;-5.70;1.00
3023;DHT22;1521;53.584;9.938;2022-12-18T03:54:52;-5.70;1.00
3023;DHT22;1521;53.584;9.938;2022-12-18T03:57:22;-5.70;1.00
3023;DHT22;1521;53.584;9.938;2022-12-18T03:59:51;-5.60;1.00
3023;DHT22;1521;53.584;9.938;2022-12-18T04:02:21;-5.70;1.00
3023;DHT22;1521;53.584;9.938;2022-12-18T04:04:53;-5.60;1.00
3023;DHT22;1521;53.584;9.938;2022-12-18T04:07:22;-5.70;1.00
3023;DHT22;1521;53.584;9.938;2022-12-18T04:09:49;-5.70;99.90
3023;DHT22;1521;53.584;9.938;2022-12-18T04:12:15;-5.70;1.00
3023;DHT22;1521;53.584;9.938;2022-12-18T04:14:41;-5.60;1.00
3023;DHT22;1521;53.584;9.938;2022-12-18T04:17:06;-5.60;1.00
3023;DHT22;1521;53.584;9.938;2022-12-18T04:19:32;-5.60;99.90
3023;DHT22;1521;53.584;9.938;2022-12-18T04:21:58;-5.70;99.90
3023;DHT22;1521;53.584;9.938;2022-12-18T04:24:23;-5.70;99.90
3023;DHT22;1521;53.584;9.938;2022-12-18T04:26:49;-5.60;99.90
3023;DHT22;1521;53.584;9.938;2022-12-18T04:29:14;-5.60;99.90
3023;DHT22;1521;53.584;9.938;2022-12-18T04:31:40;-5.70;99.90
3023;DHT22;1521;53.584;9.938;2022-12-18T04:34:05;-5.70;99.90
3023;DHT22;1521;53.584;9.938;2022-12-18T04:36:31;-5.70;99.90
3023;DHT22;1521;53.584;9.938;2022-12-18T04:38:57;-5.70;99.90
3023;DHT22;1521;53.584;9.938;2022-12-18T04:41:22;-5.70;99.90
3023;DHT22;1521;53.584;9.938;2022-12-18T04:43:48;-5.80;99.90
3023;DHT22;1521;53.584;9.938;2022-12-18T04:46:13;-5.90;99.90
3023;DHT22;1521;53.584;9.938;2022-12-18T04:48:39;-5.90;99.90
3023;DHT22;1521;53.584;9.938;2022-12-18T04:51:06;-6.00;99.90
3023;DHT22;1521;53.584;9.938;2022-12-18T04:53:32;-6.00;99.90
3023;DHT22;1521;53.584;9.938;2022-12-18T04:56:11;-6.00;99.90
3023;DHT22;1521;53.584;9.938;2022-12-18T04:58:39;-6.00;99.90
3023;DHT22;1521;53.584;9.938;2022-12-18T05:01:06;-5.90;99.90
3023;DHT22;1521;53.584;9.938;2022-12-18T05:03:33;-6.00;99.90
3023;DHT22;1521;53.584;9.938;2022-12-18T05:05:58;-6.00;99.90
3023;DHT22;1521;53.584;9.938;2022-12-18T05:08:24;-6.00;1.00
3023;DHT22;1521;53.584;9.938;2022-12-18T05:10:49;-5.90;99.90
3023;DHT22;1521;53.584;9.938;2022-12-18T05:13:15;-5.90;99.90
3023;DHT22;1521;53.584;9.938;2022-12-18T05:15:41;-5.90;99.90
3023;DHT22;1521;53.584;9.938;2022-12-18T05:18:07;-5.90;99.90
3023;DHT22;1521;53.584;9.938;2022-12-18T05:20:33;-5.90;99.90
3023;DHT22;1521;53.584;9.938;2022-12-18T05:22:59;-6.00;99.90
3023;DHT22;1521;53.584;9.938;2022-12-18T05:25:24;-5.90;99.90
3023;DHT22;1521;53.584;9.938;2022-12-18T05:27:50;-5.90;99.90
3023;DHT22;1521;53.584;9.938;2022-12-18T05:30:16;-5.80;99.90
3023;DHT22;1521;53.584;9.938;2022-12-18T05:32:42;-5.70;99.90
3023;DHT22;1521;53.584;9.938;2022-12-18T05:35:09;-5.80;99.90
3023;DHT22;1521;53.584;9.938;2022-12-18T05:37:35;-5.80;80.50
3023;DHT22;1521;53.584;9.938;2022-12-18T05:40:03;-5.90;55.10
3023;DHT22;1521;53.584;9.938;2022-12-18T05:42:28;-5.80;66.80
3023;DHT22;1521;53.584;9.938;2022-12-18T05:44:54;-5.70;63.00
3023;DHT22;1521;53.584;9.938;2022-12-18T05:47:19;-5.70;1.00
3023;DHT22;1521;53.584;9.938;2022-12-18T05:49:45;-5.70;1.00
3023;DHT22;1521;53.584;9.938;2022-12-18T05:52:11;-5.80;1.00
3023;DHT22;1521;53.584;9.938;2022-12-18T05:54:36;-5.90;1.00
3023;DHT22;1521;53.584;9.938;2022-12-18T05:57:02;-5.90;1.00
3023;DHT22;1521;53.584;9.938;2022-12-18T05:59:27;-5.90;1.00
3023;DHT22;1521;53.584;9.938;2022-12-18T06:01:53;-6.00;1.00
3023;DHT22;1521;53.584;9.938;2022-12-18T06:04:19;-6.00;1.00
3023;DHT22;1521;53.584;9.938;2022-12-18T06:06:44;-6.00;1.00
3023;DHT22;1521;53.584;9.938;2022-12-18T06:09:10;-6.10;23.60
3023;DHT22;1521;53.584;9.938;2022-12-18T06:11:37;-6.10;85.20
3023;DHT22;1521;53.584;9.938;2022-12-18T06:14:04;-6.10;79.00
3023;DHT22;1521;53.584;9.938;2022-12-18T06:16:30;-6.20;99.90
3023;DHT22;1521;53.584;9.938;2022-12-18T06:19:00;-6.20;99.90
3023;DHT22;1521;53.584;9.938;2022-12-18T06:21:27;-6.10;99.90
3023;DHT22;1521;53.584;9.938;2022-12-18T06:23:53;-6.10;99.90
3023;DHT22;1521;53.584;9.938;2022-12-18T06:26:18;-6.10;99.90
3023;DHT22;1521;53.584;9.938;2022-12-18T06:28:44;-6.00;99.90
3023;DHT22;1521;53.584;9.938;2022-12-18T06:31:10;-5.90;99.90
3023;DHT22;1521;53.584;9.938;2022-12-18T06:33:37;-6.00;99.90
3023;DHT22;1521;53.584;9.938;2022-12-18T06:36:12;-6.10;32.10
3023;DHT22;1521;53.584;9.938;2022-12-18T06:38:40;-6.10;70.90
3023;DHT22;1521;53.584;9.938;2022-12-18T06:41:11;-6.10;99.90
3023;DHT22;1521;53.584;9.938;2022-12-18T06:43:38;-6.00;99.90
3023;DHT22;1521;53.584;9.938;2022-12-18T06:46:04;-6.00;99.90
3023;DHT22;1521;53.584;9.938;2022-12-18T06:48:30;-6.00;99.90
3023;DHT22;1521;53.584;9.938;2022-12-18T06:50:56;-5.90;71.80
3023;DHT22;1521;53.584;9.938;2022-12-18T06:53:21;-5.90;76.70
3023;DHT22;1521;53.584;9.938;2022-12-18T06:55:47;-5.90;23.30
3023;DHT22;1521;53.584;9.938;2022-12-18T06:58:13;-5.80;31.90
3023;DHT22;1521;53.584;9.938;2022-12-18T07:00:38;-5.90;1.00
3023;DHT22;1521;53.584;9.938;2022-12-18T07:03:04;-5.90;1.00
3023;DHT22;1521;53.584;9.938;2022-12-18T07:05:29;-5.90;1.00
3023;DHT22;1521;53.584;9.938;2022-12-18T07:07:55;-6.00;1.00
3023;DHT22;1521;53.584;9.938;2022-12-18T07:10:21;-6.00;1.00
3023;DHT22;1521;53.584;9.938;2022-12-18T07:12:46;-6.10;7.30
3023;DHT22;1521;53.584;9.938;2022-12-18T07:15:12;-6.10;51.30
3023;DHT22;1521;53.584;9.938;2022-12-18T07:17:37;-6.10;99.90
3023;DHT22;1521;53.584;9.938;2022-12-18T07:20:03;-6.10;99.90
3023;DHT22;1521;53.584;9.938;2022-12-18T07:22:29;-6.10;99.90
3023;DHT22;1521;53.584;9.938;2022-12-18T07:24:55;-6.10;99.90
3023;DHT22;1521;53.584;9.938;2022-12-18T07:27:21;-5.90;99.90
3023;DHT22;1521;53.584;9.938;2022-12-18T07:29:47;-5.90;99.90
3023;DHT22;1521;53.584;9.938;2022-12-18T07:32:13;-5.80;99.90
3023;DHT22;1521;53.584;9.938;2022-12-18T07:34:38;-5.80;78.50
3023;DHT22;1521;53.584;9.938;2022-12-18T07:37:04;-5.80;1.00
3023;DHT22;1521;53.584;9.938;2022-12-18T07:39:30;-5.90;1.00
3023;DHT22;1521;53.584;9.938;2022-12-18T07:41:55;-5.90;1.00
3023;DHT22;1521;53.584;9.938;2022-12-18T07:44:40;-5.90;1.00
3023;DHT22;1521;53.584;9.938;2022-12-18T07:47:05;-5.80;1.00
3023;DHT22;1521;53.584;9.938;2022-12-18T07:49:31;-5.90;1.00
3023;DHT22;1521;53.584;9.938;2022-12-18T07:51:57;-5.90;1.00
3023;DHT22;1521;53.584;9.938;2022-12-18T07:54:24;-5.90;1.00
3023;DHT22;1521;53.584;9.938;2022-12-18T07:56:50;-5.90;1.00
3023;DHT22;1521;53.584;9.938;2022-12-18T07:59:16;-5.90;1.00
3023;DHT22;1521;53.584;9.938;2022-12-18T08:01:41;-5.80;1.00
3023;DHT22;1521;53.584;9.938;2022-12-18T08:04:07;-5.80;1.00
3023;DHT22;1521;53.584;9.938;2022-12-18T08:06:33;-5.70;1.00
3023;DHT22;1521;53.584;9.938;2022-12-18T08:08:58;-5.70;1.00
3023;DHT22;1521;53.584;9.938;2022-12-18T08:11:25;-5.60;1.00
3023;DHT22;1521;53.584;9.938;2022-12-18T08:13:52;-5.60;1.00
3023;DHT22;1521;53.584;9.938;2022-12-18T08:16:18;-5.60;1.00
3023;DHT22;1521;53.584;9.938;2022-12-18T08:18:44;-5.50;1.00
3023;DHT22;1521;53.584;9.938;2022-12-18T08:21:18;-5.50;1.00
3023;DHT22;1521;53.584;9.938;2022-12-18T08:23:46;-5.50;1.00
3023;DHT22;1521;53.584;9.938;2022-12-18T08:26:13;-5.40;1.00
3023;DHT22;1521;53.584;9.938;2022-12-18T08:28:39;-5.40;1.00
3023;DHT22;1521;53.584;9.938;2022-12-18T08:31:05;-5.30;1.00
3023;DHT22;1521;53.584;9.938;2022-12-18T08:33:31;-5.20;1.00
3023;DHT22;1521;53.584;9.938;2022-12-18T08:35:58;-5.20;1.00
3023;DHT22;1521;53.584;9.938;2022-12-18T08:38:24;-5.20;99.90
3023;DHT22;1521;53.584;9.938;2022-12-18T08:40:53;-5.10;99.90
3023;DHT22;1521;53.584;9.938;2022-12-18T08:43:19;-5.00;99.90
3023;DHT22;1521;53.584;9.938;2022-12-18T08:46:03;-4.90;99.90
3023;DHT22;1521;53.584;9.938;2022-12-18T08:48:29;-4.90;99.90
3023;DHT22;1521;53.584;9.938;2022-12-18T08:50:59;-4.90;99.90
3023;DHT22;1521;53.584;9.938;2022-12-18T08:53:25;-4.80;99.90
3023;DHT22;1521;53.584;9.938;2022-12-18T08:55:51;-4.70;99.90
3023;DHT22;1521;53.584;9.938;2022-12-18T08:58:17;-4.70;99.90
3023;DHT22;1521;53.584;9.938;2022-12-18T09:00:43;-4.70;99.90
3023;DHT22;1521;53.584;9.938;2022-12-18T09:03:15;-4.60;99.90
3023;DHT22;1521;53.584;9.938;2022-12-18T09:05:41;-4.60;99.90
3023;DHT22;1521;53.584;9.938;2022-12-18T09:08:07;-4.60;99.90
3023;DHT22;1521;53.584;9.938;2022-12-18T09:10:32;-4.60;99.90
3023;DHT22;1521;53.584;9.938;2022-12-18T09:12:58;-4.50;99.90
3023;DHT22;1521;53.584;9.938;2022-12-18T09:15:24;-4.50;96.60
3023;DHT22;1521;53.584;9.938;2022-12-18T09:17:50;-4.40;97.90
3023;DHT22;1521;53.584;9.938;2022-12-18T09:20:18;-4.30;92.90
3023;DHT22;1521;53.584;9.938;2022-12-18T09:22:44;-4.30;86.80
3023;DHT22;1521;53.584;9.938;2022-12-18T09:25:09;-4.20;65.90
3023;DHT22;1521;53.584;9.938;2022-12-18T09:27:35;-4.10;40.60
3023;DHT22;1521;53.584;9.938;2022-12-18T09:30:01;-4.10;18.30
3023;DHT22;1521;53.584;9.938;2022-12-18T09:32:27;-4.00;15.10
3023;DHT22;1521;53.584;9.938;2022-12-18T09:34:52;-3.90;7.70
3023;DHT22;1521;53.584;9.938;2022-12-18T09:37:18;-3.90;1.00
3023;DHT22;1521;53.584;9.938;2022-12-18T09:39:44;-3.90;1.00
3023;DHT22;1521;53.584;9.938;2022-12-18T09:42:19;-3.90;1.00
3023;DHT22;1521;53.584;9.938;2022-12-18T09:44:49;-3.70;1.00
3023;DHT22;1521;53.584;9.938;2022-12-18T09:47:23;-3.60;1.00
3023;DHT22;1521;53.584;9.938;2022-12-18T09:49:56;-3.40;1.00
3023;DHT22;1521;53.584;9.938;2022-12-18T09:52:35;-3.30;1.00
3023;DHT22;1521;53.584;9.938;2022-12-18T09:57:49;-3.10;1.00
3023;DHT22;1521;53.584;9.938;2022-12-18T10:00:22;-3.00;1.00
3023;DHT22;1521;53.584;9.938;2022-12-18T10:02:50;-2.90;1.00
3023;DHT22;1521;53.584;9.938;2022-12-18T10:05:24;-2.90;1.00
3023;DHT22;1521;53.584;9.938;2022-12-18T10:19:05;-2.30;1.00
3023;DHT22;1521;53.584;9.938;2022-12-18T10:21:49;-2.10;1.00
3023;DHT22;1521;53.584;9.938;2022-12-18T10:26:41;-1.60;1.00
3023;DHT22;1521;53.584;9.938;2022-12-18T10:29:12;-1.40;1.00
3023;DHT22;1521;53.584;9.938;2022-12-18T10:31:39;-1.00;1.00
3023;DHT22;1521;53.584;9.938;2022-12-18T10:34:08;-0.50;1.00
3023;DHT22;1521;53.584;9.938;2022-12-18T10:36:34;-0.30;1.00
3023;DHT22;1521;53.584;9.938;2022-12-18T10:39:29;0.00;1.00
3023;DHT22;1521;53.584;9.938;2022-12-18T10:42:19;0.10;1.00
3023;DHT22;1521;53.584;9.938;2022-12-18T10:44:45;0.20;1.00
3023;DHT22;1521;53.584;9.938;2022-12-18T10:47:17;0.30;1.00
3023;DHT22;1521;53.584;9.938;2022-12-18T10:49:52;0.50;1.00
3023;DHT22;1521;53.584;9.938;2022-12-18T10:52:25;1.20;1.00
3023;DHT22;1521;53.584;9.938;2022-12-18T10:55:03;2.00;1.00
3023;DHT22;1521;53.584;9.938;2022-12-18T11:00:18;4.00;1.00
3023;DHT22;1521;53.584;9.938;2022-12-18T11:02:45;5.10;1.00
3023;DHT22;1521;53.584;9.938;2022-12-18T11:05:29;5.20;1.00
3023;DHT22;1521;53.584;9.938;2022-12-18T11:07:57;5.20;1.00
3023;DHT22;1521;53.584;9.938;2022-12-18T11:10:32;5.30;1.00
3023;DHT22;1521;53.584;9.938;2022-12-18T11:13:19;4.90;1.00
3023;DHT22;1521;53.584;9.938;2022-12-18T11:15:46;4.50;1.00
3023;DHT22;1521;53.584;9.938;2022-12-18T11:18:32;4.20;1.00
3023;DHT22;1521;53.584;9.938;2022-12-18T11:21:11;3.90;1.00
3023;DHT22;1521;53.584;9.938;2022-12-18T11:23:50;3.20;1.00
3023;DHT22;1521;53.584;9.938;2022-12-18T11:26:17;2.60;1.00
3023;DHT22;1521;53.584;9.938;2022-12-18T11:28:51;2.20;1.00
3023;DHT22;1521;53.584;9.938;2022-12-18T11:31:29;1.50;1.00
3023;DHT22;1521;53.584;9.938;2022-12-18T11:36:42;0.60;1.00
3023;DHT22;1521;53.584;9.938;2022-12-18T11:39:20;0.40;1.00
3023;DHT22;1521;53.584;9.938;2022-12-18T11:41:52;0.10;1.00
3023;DHT22;1521;53.584;9.938;2022-12-18T11:47:37;0.40;1.00
3023;DHT22;1521;53.584;9.938;2022-12-18T11:50:14;1.00;1.00
3023;DHT22;1521;53.584;9.938;2022-12-18T11:52:41;1.90;1.00
3023;DHT22;1521;53.584;9.938;2022-12-18T11:55:13;2.60;1.00
3023;DHT22;1521;53.584;9.938;2022-12-18T11:57:52;3.00;1.00
3023;DHT22;1521;53.584;9.938;2022-12-18T12:00:21;3.30;1.00
3023;DHT22;1521;53.584;9.938;2022-12-18T12:16:22;1.10;1.00
3023;DHT22;1521;53.584;9.938;2022-12-18T12:19:15;0.80;1.00
3023;DHT22;1521;53.584;9.938;2022-12-18T12:21:51;0.80;1.00
3023;DHT22;1521;53.584;9.938;2022-12-18T12:29:42;0.20;1.00
3023;DHT22;1521;53.584;9.938;2022-12-18T12:37:52;0.20;1.00
3023;DHT22;1521;53.584;9.938;2022-12-18T12:40:20;0.00;1.00
3023;DHT22;1521;53.584;9.938;2022-12-18T12:42:54;0.10;1.00
3023;DHT22;1521;53.584;9.938;2022-12-18T12:45:50;0.90;1.00
3023;DHT22;1521;53.584;9.938;2022-12-18T12:48:35;3.10;1.00
3023;DHT22;1521;53.584;9.938;2022-12-18T12:51:19;5.60;1.00
3023;DHT22;1521;53.584;9.938;2022-12-18T12:53:45;6.10;1.00
3023;DHT22;1521;53.584;9.938;2022-12-18T12:56:13;5.40;1.00
3023;DHT22;1521;53.584;9.938;2022-12-18T13:04:27;2.40;1.00
3023;DHT22;1521;53.584;9.938;2022-12-18T13:10:10;1.40;1.00
3023;DHT22;1521;53.584;9.938;2022-12-18T13:12:36;1.30;1.00
3023;DHT22;1521;53.584;9.938;2022-12-18T13:15:22;1.50;1.00
3023;DHT22;1521;53.584;9.938;2022-12-18T13:18:03;1.90;1.00
3023;DHT22;1521;53.584;9.938;2022-12-18T13:20:34;2.10;1.00
3023;DHT22;1521;53.584;9.938;2022-12-18T13:23:00;1.60;1.00
3023;DHT22;1521;53.584;9.938;2022-12-18T13:25:37;1.30;1.00
3023;DHT22;1521;53.584;9.938;2022-12-18T13:28:14;0.90;1.00
3023;DHT22;1521;53.584;9.938;2022-12-18T13:30:50;0.50;1.00
3023;DHT22;1521;53.584;9.938;2022-12-18T13:38:42;-0.20;1.00
3023;DHT22;1521;53.584;9.938;2022-12-18T13:43:46;-0.50;1.00
3023;DHT22;1521;53.584;9.938;2022-12-18T13:46:43;-0.60;1.00
3023;DHT22;1521;53.584;9.938;2022-12-18T13:51:58;-1.00;1.00
3023;DHT22;1521;53.584;9.938;2022-12-18T13:54:34;-1.20;1.00
3023;DHT22;1521;53.584;9.938;2022-12-18T13:57:01;-1.30;1.00
3023;DHT22;1521;53.584;9.938;2022-12-18T13:59:39;-1.30;1.00
3023;DHT22;1521;53.584;9.938;2022-12-18T14:02:21;-1.40;1.00
3023;DHT22;1521;53.584;9.938;2022-12-18T14:04:48;-1.50;1.00
3023;DHT22;1521;53.584;9.938;2022-12-18T14:07:22;-1.60;1.00
3023;DHT22;1521;53.584;9.938;2022-12-18T14:09:59;-1.60;1.00
3023;DHT22;1521;53.584;9.938;2022-12-18T14:12:28;-1.70;1.00
3023;DHT22;1521;53.584;9.938;2022-12-18T14:17:57;-1.80;1.00
3023;DHT22;1521;53.584;9.938;2022-12-18T14:20:25;-1.80;1.00
3023;DHT22;1521;53.584;9.938;2022-12-18T14:22:51;-1.90;1.00
3023;DHT22;1521;53.584;9.938;2022-12-18T14:25:22;-2.00;1.00
3023;DHT22;1521;53.584;9.938;2022-12-18T14:28:13;-2.00;1.00
3023;DHT22;1521;53.584;9.938;2022-12-18T14:30:41;-2.10;1.00
3023;DHT22;1521;53.584;9.938;2022-12-18T14:35:51;-2.20;1.00
3023;DHT22;1521;53.584;9.938;2022-12-18T14:38:27;-2.20;1.00
3023;DHT22;1521;53.584;9.938;2022-12-18T14:40:58;-2.20;1.00
3023;DHT22;1521;53.584;9.938;2022-12-18T14:43:24;-2.20;1.00
3023;DHT22;1521;53.584;9.938;2022-12-18T14:45:51;-2.30;1.00
3023;DHT22;1521;53.584;9.938;2022-12-18T14:48:38;-2.40;1.00
3023;DHT22;1521;53.584;9.938;2022-12-18T14:53:41;-2.50;1.00
3023;DHT22;1521;53.584;9.938;2022-12-18T14:58:47;-2.70;1.00
3023;DHT22;1521;53.584;9.938;2022-12-18T15:01:28;-2.70;1.00
3023;DHT22;1521;53.584;9.938;2022-12-18T15:03:56;-2.80;1.00
3023;DHT22;1521;53.584;9.938;2022-12-18T15:06:29;-2.80;1.00
3023;DHT22;1521;53.584;9.938;2022-12-18T15:08:56;-2.80;1.00
3023;DHT22;1521;53.584;9.938;2022-12-18T15:11:43;-2.90;1.00
3023;DHT22;1521;53.584;9.938;2022-12-18T15:14:38;-2.90;1.00
3023;DHT22;1521;53.584;9.938;2022-12-18T15:17:18;-2.90;1.00
3023;DHT22;1521;53.584;9.938;2022-12-18T15:19:45;-3.00;1.00
3023;DHT22;1521;53.584;9.938;2022-12-18T15:24:46;-3.00;1.00
3023;DHT22;1521;53.584;9.938;2022-12-18T15:27:35;-3.00;1.00
3023;DHT22;1521;53.584;9.938;2022-12-18T15:30:19;-3.00;1.00
3023;DHT22;1521;53.584;9.938;2022-12-18T15:32:46;-3.00;1.00
3023;DHT22;1521;53.584;9.938;2022-12-18T15:35:24;-3.00;1.00
3023;DHT22;1521;53.584;9.938;2022-12-18T15:37:51;-3.10;1.00
3023;DHT22;1521;53.584;9.938;2022-12-18T15:40:20;-3.10;1.00
3023;DHT22;1521;53.584;9.938;2022-12-18T15:42:46;-3.00;1.00
3023;DHT22;1521;53.584;9.938;2022-12-18T15:45:31;-3.00;1.00
3023;DHT22;1521;53.584;9.938;2022-12-18T15:47:57;-3.10;1.00
3023;DHT22;1521;53.584;9.938;2022-12-18T15:50:23;-3.00;1.00
3023;DHT22;1521;53.584;9.938;2022-12-18T15:52:51;-2.90;1.00
3023;DHT22;1521;53.584;9.938;2022-12-18T15:55:20;-2.90;1.00
3023;DHT22;1521;53.584;9.938;2022-12-18T15:58:05;-2.90;1.00
3023;DHT22;1521;53.584;9.938;2022-12-18T16:00:32;-2.90;1.00
3023;DHT22;1521;53.584;9.938;2022-12-18T16:02:59;-2.90;1.00
3023;DHT22;1521;53.584;9.938;2022-12-18T16:05:26;-2.90;1.00
3023;DHT22;1521;53.584;9.938;2022-12-18T16:07:52;-2.90;1.00
3023;DHT22;1521;53.584;9.938;2022-12-18T16:10:18;-2.90;1.00
3023;DHT22;1521;53.584;9.938;2022-12-18T16:12:44;-2.90;1.00
3023;DHT22;1521;53.584;9.938;2022-12-18T16:15:12;-2.90;1.00
3023;DHT22;1521;53.584;9.938;2022-12-18T16:17:42;-2.90;1.00
3023;DHT22;1521;53.584;9.938;2022-12-18T16:20:19;-2.90;1.00
3023;DHT22;1521;53.584;9.938;2022-12-18T16:22:46;-2.90;1.00
3023;DHT22;1521;53.584;9.938;2022-12-18T16:25:19;-2.80;1.00
3023;DHT22;1521;53.584;9.938;2022-12-18T16:27:48;-2.80;1.00
3023;DHT22;1521;53.584;9.938;2022-12-18T16:30:20;-2.90;1.00
3023;DHT22;1521;53.584;9.938;2022-12-18T16:32:46;-2.90;1.00
3023;DHT22;1521;53.584;9.938;2022-12-18T16:35:13;-3.00;1.00
3023;DHT22;1521;53.584;9.938;2022-12-18T16:37:39;-3.00;1.00
3023;DHT22;1521;53.584;9.938;2022-12-18T16:40:07;-3.00;1.00
3023;DHT22;1521;53.584;9.938;2022-12-18T16:42:35;-2.90;1.00
3023;DHT22;1521;53.584;9.938;2022-12-18T16:45:00;-3.00;1.00
3023;DHT22;1521;53.584;9.938;2022-12-18T16:47:26;-3.00;1.00
3023;DHT22;1521;53.584;9.938;2022-12-18T16:49:51;-3.00;1.00
3023;DHT22;1521;53.584;9.938;2022-12-18T16:52:18;-3.00;1.00
3023;DHT22;1521;53.584;9.938;2022-12-18T16:54:44;-3.00;1.00
3023;DHT22;1521;53.584;9.938;2022-12-18T16:57:14;-3.00;1.00
3023;DHT22;1521;53.584;9.938;2022-12-18T16:59:40;-3.00;1.00
3023;DHT22;1521;53.584;9.938;2022-12-18T17:02:15;-3.10;1.00
3023;DHT22;1521;53.584;9.938;2022-12-18T17:04:41;-3.10;1.00
3023;DHT22;1521;53.584;9.938;2022-12-18T17:07:08;-3.10;1.00
3023;DHT22;1521;53.584;9.938;2022-12-18T17:09:34;-3.00;1.00
3023;DHT22;1521;53.584;9.938;2022-12-18T17:11:59;-3.00;1.00
3023;DHT22;1521;53.584;9.938;2022-12-18T17:14:25;-3.00;1.00
3023;DHT22;1521;53.584;9.938;2022-12-18T17:16:52;-3.00;1.00
3023;DHT22;1521;53.584;9.938;2022-12-18T17:19:19;-3.00;1.00
3023;DHT22;1521;53.584;9.938;2022-12-18T17:21:47;-3.00;1.00
3023;DHT22;1521;53.584;9.938;2022-12-18T17:24:14;-3.00;1.00
3023;DHT22;1521;53.584;9.938;2022-12-18T17:26:40;-3.00;1.00
3023;DHT22;1521;53.584;9.938;2022-12-18T17:29:05;-3.00;1.00
3023;DHT22;1521;53.584;9.938;2022-12-18T17:31:32;-3.00;1.00
3023;DHT22;1521;53.584;9.938;2022-12-18T17:33:58;-3.00;1.00
3023;DHT22;1521;53.584;9.938;2022-12-18T17:36:25;-3.00;1.00
3023;DHT22;1521;53.584;9.938;2022-12-18T17:38:57;-3.10;1.00
3023;DHT22;1521;53.584;9.938;2022-12-18T17:41:24;-3.00;1.00
3023;DHT22;1521;53.584;9.938;2022-12-18T17:43:54;-3.00;1.00
3023;DHT22;1521;53.584;9.938;2022-12-18T17:46:21;-3.00;1.00
3023;DHT22;1521;53.584;9.938;2022-12-18T17:48:46;-3.00;1.00
3023;DHT22;1521;53.584;9.938;2022-12-18T17:51:13;-3.00;1.00
3023;DHT22;1521;53.584;9.938;2022-12-18T17:53:39;-2.90;1.00
3023;DHT22;1521;53.584;9.938;2022-12-18T17:56:05;-2.90;1.00
3023;DHT22;1521;53.584;9.938;2022-12-18T17:58:33;-2.90;1.00
3023;DHT22;1521;53.584;9.938;2022-12-18T18:01:00;-3.00;1.00
3023;DHT22;1521;53.584;9.938;2022-12-18T18:03:25;-2.90;1.00
3023;DHT22;1521;53.584;9.938;2022-12-18T18:05:55;-2.90;1.00
3023;DHT22;1521;53.584;9.938;2022-12-18T18:08:21;-3.00;1.00
3023;DHT22;1521;53.584;9.938;2022-12-18T18:10:47;-3.00;1.00
3023;DHT22;1521;53.584;9.938;2022-12-18T18:13:24;-3.00;1.00
3023;DHT22;1521;53.584;9.938;2022-12-18T18:16:09;-3.00;1.00
3023;DHT22;1521;53.584;9.938;2022-12-18T18:18:36;-2.90;1.00
3023;DHT22;1521;53.584;9.938;2022-12-18T18:21:08;-2.90;1.00
3023;DHT22;1521;53.584;9.938;2022-12-18T18:23:34;-2.90;1.00